sensor_id;sensor_type;location;lat;lon;timestamp;temperature;humidity
44190;DHT22;29856;52.144;5.430;2023-10-09T00:00:48;15.30;99.90
44190;DHT22;29856;52.144;5.430;2023-10-09T00:03:14;15.30;99.90
44190;DHT22;29856;52.144;5.430;2023-10-09T00:05:39;15.30;99.90
44190;DHT22;29856;52.144;5.430;2023-10-09T00:08:05;15.30;99.90
44190;DHT22;29856;52.144;5.430;2023-10-09T00:10:30;15.30;99.90
44190;DHT22;29856;52.144;5.430;2023-10-09T00:12:56;15.30;99.90
44190;DHT22;29856;52.144;5.430;2023-10-09T00:15:21;15.30;99.90
44190;DHT22;29856;52.144;5.430;2023-10-09T00:17:47;15.30;99.90
44190;DHT22;29856;52.144;5.430;2023-10-09T00:20:13;15.30;99.90
44190;DHT22;29856;52.144;5.430;2023-10-09T00:22:38;15.30;99.90
44190;DHT22;29856;52.144;5.430;2023-10-09T00:25:04;15.40;99.90
44190;DHT22;29856;52.144;5.430;2023-10-09T00:27:30;15.40;99.90
44190;DHT22;29856;52.144;5.430;2023-10-09T00:29:55;15.40;99.90
44190;DHT22;29856;52.144;5.430;2023-10-09T00:32:21;15.40;99.90
44190;DHT22;29856;52.144;5.430;2023-10-09T00:34:46;15.40;99.90
44190;DHT22;29856;52.144;5.430;2023-10-09T00:37:12;15.40;99.90
44190;DHT22;29856;52.144;5.430;2023-10-09T00:39:37;15.40;99.90
44190;DHT22;29856;52.144;5.430;2023-10-09T00:42:03;15.40;99.90
44190;DHT22;29856;52.144;5.430;2023-10-09T00:44:29;15.40;99.90
44190;DHT22;29856;52.144;5.430;2023-10-09T00:46:54;15.40;99.90
44190;DHT22;29856;52.144;5.430;2023-10-09T00:49:20;15.40;99.90
44190;DHT22;29856;52.144;5.430;2023-10-09T00:51:50;15.50;99.90
44190;DHT22;29856;52.144;5.430;2023-10-09T00:54:16;15.50;99.90
44190;DHT22;29856;52.144;5.430;2023-10-09T00:56:43;15.50;99.90
44190;DHT22;29856;52.144;5.430;2023-10-09T00:59:09;15.50;99.90
44190;DHT22;29856;52.144;5.430;2023-10-09T01:01:36;15.50;99.90
44190;DHT22;29856;52.144;5.430;2023-10-09T01:04:02;15.50;99.90
44190;DHT22;29856;52.144;5.430;2023-10-09T01:06:29;15.50;99.90
44190;DHT22;29856;52.144;5.430;2023-10-09T01:08:54;15.50;99.90
44190;DHT22;29856;52.144;5.430;2023-10-09T01:11:23;15.50;99.90
44190;DHT22;29856;52.144;5.430;2023-10-09T01:13:49;15.50;99.90
44190;DHT22;29856;52.144;5.430;2023-10-09T01:16:15;15.50;99.90
44190;DHT22;29856;52.144;5.430;2023-10-09T01:18:43;15.60;99.90
44190;DHT22;29856;52.144;5.430;2023-10-09T01:21:10;15.60;99.90
44190;DHT22;29856;52.144;5.430;2023-10-09T01:23:35;15.70;99.90
44190;DHT22;29856;52.144;5.430;2023-10-09T01:26:01;15.60;99.90
44190;DHT22;29856;52.144;5.430;2023-10-09T01:28:26;15.60;99.90
44190;DHT22;29856;52.144;5.430;2023-10-09T01:30:52;15.60;99.90
44190;DHT22;29856;52.144;5.430;2023-10-09T01:33:17;15.70;99.90
44190;DHT22;29856;52.144;5.430;2023-10-09T01:35:43;15.70;99.90
44190;DHT22;29856;52.144;5.430;2023-10-09T01:38:08;15.70;99.90
44190;DHT22;29856;52.144;5.430;2023-10-09T01:40:34;15.70;99.90
44190;DHT22;29856;52.144;5.430;2023-10-09T01:42:59;15.80;99.90
44190;DHT22;29856;52.144;5.430;2023-10-09T01:45:25;15.70;99.90
44190;DHT22;29856;52.144;5.430;2023-10-09T01:47:50;15.70;99.90
44190;DHT22;29856;52.144;5.430;2023-10-09T01:50:16;15.70;99.90
44190;DHT22;29856;52.144;5.430;2023-10-09T01:52:41;15.70;99.90
44190;DHT22;29856;52.144;5.430;2023-10-09T01:55:07;15.70;99.90
44190;DHT22;29856;52.144;5.430;2023-10-09T01:57:33;15.70;99.90
44190;DHT22;29856;52.144;5.430;2023-10-09T01:59:58;15.70;99.90
44190;DHT22;29856;52.144;5.430;2023-10-09T02:02:24;15.70;99.90
44190;DHT22;29856;52.144;5.430;2023-10-09T02:04:49;15.70;99.90
44190;DHT22;29856;52.144;5.430;2023-10-09T02:07:15;15.60;99.90
44190;DHT22;29856;52.144;5.430;2023-10-09T02:09:40;15.70;99.90
44190;DHT22;29856;52.144;5.430;2023-10-09T02:12:06;15.70;99.90
44190;DHT22;29856;52.144;5.430;2023-10-09T02:14:31;15.70;99.90
44190;DHT22;29856;52.144;5.430;2023-10-09T02:16:57;15.70;99.90
44190;DHT22;29856;52.144;5.430;2023-10-09T02:19:22;15.70;99.90
44190;DHT22;29856;52.144;5.430;2023-10-09T02:21:48;15.70;99.90
44190;DHT22;29856;52.144;5.430;2023-10-09T02:24:13;15.70;99.90
44190;DHT22;29856;52.144;5.430;2023-10-09T02:26:39;15.70;99.90
44190;DHT22;29856;52.144;5.430;2023-10-09T02:29:04;15.70;99.90
44190;DHT22;29856;52.144;5.430;2023-10-09T02:31:30;15.70;99.90
44190;DHT22;29856;52.144;5.430;2023-10-09T02:33:56;15.70;99.90
44190;DHT22;29856;52.144;5.430;2023-10-09T02:36:22;15.70;99.90
44190;DHT22;29856;52.144;5.430;2023-10-09T02:38:47;15.70;99.90
44190;DHT22;29856;52.144;5.430;2023-10-09T02:41:13;15.80;99.90
44190;DHT22;29856;52.144;5.430;2023-10-09T02:43:38;15.80;99.90
44190;DHT22;29856;52.144;5.430;2023-10-09T02:46:04;15.70;99.90
44190;DHT22;29856;52.144;5.430;2023-10-09T02:48:29;15.70;99.90
44190;DHT22;29856;52.144;5.430;2023-10-09T02:50:55;15.80;99.90
44190;DHT22;29856;52.144;5.430;2023-10-09T02:53:21;15.70;99.90
44190;DHT22;29856;52.144;5.430;2023-10-09T02:55:47;15.70;99.90
44190;DHT22;29856;52.144;5.430;2023-10-09T02:58:12;15.80;99.90
44190;DHT22;29856;52.144;5.430;2023-10-09T03:00:38;15.80;99.90
44190;DHT22;29856;52.144;5.430;2023-10-09T03:03:04;15.80;99.90
44190;DHT22;29856;52.144;5.430;2023-10-09T03:05:29;15.80;99.90
44190;DHT22;29856;52.144;5.430;2023-10-09T03:07:55;15.80;99.90
44190;DHT22;29856;52.144;5.430;2023-10-09T03:10:23;15.80;99.90
44190;DHT22;29856;52.144;5.430;2023-10-09T03:12:49;15.80;99.90
44190;DHT22;29856;52.144;5.430;2023-10-09T03:15:15;15.80;99.90
44190;DHT22;29856;52.144;5.430;2023-10-09T03:17:40;15.90;99.90
44190;DHT22;29856;52.144;5.430;2023-10-09T03:20:06;15.80;99.90
44190;DHT22;29856;52.144;5.430;2023-10-09T03:22:32;15.80;99.90
44190;DHT22;29856;52.144;5.430;2023-10-09T03:24:58;15.80;99.90
44190;DHT22;29856;52.144;5.430;2023-10-09T03:27:23;15.90;99.90
44190;DHT22;29856;52.144;5.430;2023-10-09T03:29:49;15.90;99.90
44190;DHT22;29856;52.144;5.430;2023-10-09T03:32:14;16.00;99.90
44190;DHT22;29856;52.144;5.430;2023-10-09T03:34:40;15.90;99.90
44190;DHT22;29856;52.144;5.430;2023-10-09T03:37:05;15.90;99.90
44190;DHT22;29856;52.144;5.430;2023-10-09T03:39:32;15.90;99.90
44190;DHT22;29856;52.144;5.430;2023-10-09T03:41:57;15.90;99.90
44190;DHT22;29856;52.144;5.430;2023-10-09T03:44:23;15.80;99.90
44190;DHT22;29856;52.144;5.430;2023-10-09T03:46:48;15.90;99.90
44190;DHT22;29856;52.144;5.430;2023-10-09T03:49:14;15.90;99.90
44190;DHT22;29856;52.144;5.430;2023-10-09T03:51:40;15.80;99.90
44190;DHT22;29856;52.144;5.430;2023-10-09T03:54:05;15.90;99.90
44190;DHT22;29856;52.144;5.430;2023-10-09T03:56:31;15.90;99.90
44190;DHT22;29856;52.144;5.430;2023-10-09T03:58:56;15.90;99.90
44190;DHT22;29856;52.144;5.430;2023-10-09T04:01:22;15.90;99.90
44190;DHT22;29856;52.144;5.430;2023-10-09T04:03:48;15.90;99.90
44190;DHT22;29856;52.144;5.430;2023-10-09T04:06:14;16.00;99.90
44190;DHT22;29856;52.144;5.430;2023-10-09T04:08:39;15.90;99.90
44190;DHT22;29856;52.144;5.430;2023-10-09T04:11:05;16.00;99.90
44190;DHT22;29856;52.144;5.430;2023-10-09T04:13:34;16.00;99.90
44190;DHT22;29856;52.144;5.430;2023-10-09T04:16:01;16.10;99.90
44190;DHT22;29856;52.144;5.430;2023-10-09T04:18:26;16.00;99.90
44190;DHT22;29856;52.144;5.430;2023-10-09T04:20:52;16.00;99.90
44190;DHT22;29856;52.144;5.430;2023-10-09T04:23:18;16.00;99.90
44190;DHT22;29856;52.144;5.430;2023-10-09T04:25:43;16.00;99.90
44190;DHT22;29856;52.144;5.430;2023-10-09T04:28:09;16.00;99.90
44190;DHT22;29856;52.144;5.430;2023-10-09T04:30:36;16.00;99.90
44190;DHT22;29856;52.144;5.430;2023-10-09T04:33:02;16.00;99.90
44190;DHT22;29856;52.144;5.430;2023-10-09T04:35:30;16.10;99.90
44190;DHT22;29856;52.144;5.430;2023-10-09T04:37:55;16.00;99.90
44190;DHT22;29856;52.144;5.430;2023-10-09T04:40:21;16.10;99.90
44190;DHT22;29856;52.144;5.430;2023-10-09T04:42:46;16.10;99.90
44190;DHT22;29856;52.144;5.430;2023-10-09T04:45:12;16.10;99.90
44190;DHT22;29856;52.144;5.430;2023-10-09T04:47:37;16.10;99.90
44190;DHT22;29856;52.144;5.430;2023-10-09T04:50:07;16.20;99.90
44190;DHT22;29856;52.144;5.430;2023-10-09T04:52:32;16.20;99.90
44190;DHT22;29856;52.144;5.430;2023-10-09T04:54:58;16.30;99.90
44190;DHT22;29856;52.144;5.430;2023-10-09T04:57:24;16.30;99.90
44190;DHT22;29856;52.144;5.430;2023-10-09T04:59:50;16.30;99.90
44190;DHT22;29856;52.144;5.430;2023-10-09T05:02:15;16.30;99.90
44190;DHT22;29856;52.144;5.430;2023-10-09T05:04:41;16.30;99.90
44190;DHT22;29856;52.144;5.430;2023-10-09T05:07:07;16.40;99.90
44190;DHT22;29856;52.144;5.430;2023-10-09T05:09:32;16.30;99.90
44190;DHT22;29856;52.144;5.430;2023-10-09T05:11:58;16.40;99.90
44190;DHT22;29856;52.144;5.430;2023-10-09T05:14:23;16.40;99.90
44190;DHT22;29856;52.144;5.430;2023-10-09T05:16:49;16.30;99.90
44190;DHT22;29856;52.144;5.430;2023-10-09T05:19:14;16.40;99.90
44190;DHT22;29856;52.144;5.430;2023-10-09T05:21:40;16.50;99.90
44190;DHT22;29856;52.144;5.430;2023-10-09T05:24:06;16.50;99.90
44190;DHT22;29856;52.144;5.430;2023-10-09T05:26:32;16.50;99.90
44190;DHT22;29856;52.144;5.430;2023-10-09T05:28:57;16.60;99.90
44190;DHT22;29856;52.144;5.430;2023-10-09T05:31:23;16.60;99.90
44190;DHT22;29856;52.144;5.430;2023-10-09T05:33:51;16.70;99.90
44190;DHT22;29856;52.144;5.430;2023-10-09T05:36:17;16.80;99.90
44190;DHT22;29856;52.144;5.430;2023-10-09T05:38:42;16.80;99.90
44190;DHT22;29856;52.144;5.430;2023-10-09T05:41:08;16.80;99.90
44190;DHT22;29856;52.144;5.430;2023-10-09T05:43:33;16.90;99.90
44190;DHT22;29856;52.144;5.430;2023-10-09T05:45:58;16.90;99.90
44190;DHT22;29856;52.144;5.430;2023-10-09T05:48:24;16.90;99.90
44190;DHT22;29856;52.144;5.430;2023-10-09T05:50:49;17.00;99.90
44190;DHT22;29856;52.144;5.430;2023-10-09T05:53:15;17.00;99.90
44190;DHT22;29856;52.144;5.430;2023-10-09T05:55:41;17.10;99.90
44190;DHT22;29856;52.144;5.430;2023-10-09T05:58:06;17.10;99.90
44190;DHT22;29856;52.144;5.430;2023-10-09T06:00:32;17.10;99.90
44190;DHT22;29856;52.144;5.430;2023-10-09T06:02:57;17.10;99.90
44190;DHT22;29856;52.144;5.430;2023-10-09T06:05:23;17.10;99.90
44190;DHT22;29856;52.144;5.430;2023-10-09T06:07:48;17.10;99.90
44190;DHT22;29856;52.144;5.430;2023-10-09T06:10:14;17.10;99.90
44190;DHT22;29856;52.144;5.430;2023-10-09T06:12:39;17.20;99.90
44190;DHT22;29856;52.144;5.430;2023-10-09T06:15:05;17.20;99.90
44190;DHT22;29856;52.144;5.430;2023-10-09T06:17:31;17.20;99.90
44190;DHT22;29856;52.144;5.430;2023-10-09T06:19:56;17.30;99.90
44190;DHT22;29856;52.144;5.430;2023-10-09T06:22:21;17.20;99.90
44190;DHT22;29856;52.144;5.430;2023-10-09T06:24:47;17.30;99.90
44190;DHT22;29856;52.144;5.430;2023-10-09T06:27:12;17.30;99.90
44190;DHT22;29856;52.144;5.430;2023-10-09T06:29:39;17.30;99.90
44190;DHT22;29856;52.144;5.430;2023-10-09T06:32:09;17.30;99.90
44190;DHT22;29856;52.144;5.430;2023-10-09T06:34:34;17.30;99.90
44190;DHT22;29856;52.144;5.430;2023-10-09T06:37:00;17.30;99.90
44190;DHT22;29856;52.144;5.430;2023-10-09T06:39:26;17.30;99.90
44190;DHT22;29856;52.144;5.430;2023-10-09T06:41:51;17.30;99.90
44190;DHT22;29856;52.144;5.430;2023-10-09T06:44:17;17.30;99.90
44190;DHT22;29856;52.144;5.430;2023-10-09T06:46:42;17.40;99.90
44190;DHT22;29856;52.144;5.430;2023-10-09T06:49:07;17.30;99.90
44190;DHT22;29856;52.144;5.430;2023-10-09T06:51:33;17.30;99.90
44190;DHT22;29856;52.144;5.430;2023-10-09T06:54:00;17.40;99.90
44190;DHT22;29856;52.144;5.430;2023-10-09T06:56:27;17.40;99.90
44190;DHT22;29856;52.144;5.430;2023-10-09T06:58:53;17.40;99.90
44190;DHT22;29856;52.144;5.430;2023-10-09T07:01:18;17.40;99.90
44190;DHT22;29856;52.144;5.430;2023-10-09T07:03:43;17.40;99.90
44190;DHT22;29856;52.144;5.430;2023-10-09T07:06:10;17.50;99.90
44190;DHT22;29856;52.144;5.430;2023-10-09T07:08:36;17.50;99.90
44190;DHT22;29856;52.144;5.430;2023-10-09T07:11:01;17.50;99.90
44190;DHT22;29856;52.144;5.430;2023-10-09T07:13:27;17.50;99.90
44190;DHT22;29856;52.144;5.430;2023-10-09T07:15:52;17.50;99.90
44190;DHT22;29856;52.144;5.430;2023-10-09T07:18:18;17.50;99.90
44190;DHT22;29856;52.144;5.430;2023-10-09T07:20:43;17.50;99.90
44190;DHT22;29856;52.144;5.430;2023-10-09T07:23:09;17.60;99.90
44190;DHT22;29856;52.144;5.430;2023-10-09T07:25:34;17.60;99.90
44190;DHT22;29856;52.144;5.430;2023-10-09T07:28:00;17.50;99.90
44190;DHT22;29856;52.144;5.430;2023-10-09T07:30:25;17.60;99.90
44190;DHT22;29856;52.144;5.430;2023-10-09T07:32:55;17.60;99.90
44190;DHT22;29856;52.144;5.430;2023-10-09T07:35:21;17.60;99.90
44190;DHT22;29856;52.144;5.430;2023-10-09T07:37:47;17.60;99.90
44190;DHT22;29856;52.144;5.430;2023-10-09T07:40:12;17.60;99.90
44190;DHT22;29856;52.144;5.430;2023-10-09T07:42:38;17.60;99.90
44190;DHT22;29856;52.144;5.430;2023-10-09T07:45:03;17.60;99.90
44190;DHT22;29856;52.144;5.430;2023-10-09T07:47:29;17.70;99.90
44190;DHT22;29856;52.144;5.430;2023-10-09T07:49:55;17.70;99.90
44190;DHT22;29856;52.144;5.430;2023-10-09T07:52:20;17.90;99.90
44190;DHT22;29856;52.144;5.430;2023-10-09T07:54:46;17.80;99.90
44190;DHT22;29856;52.144;5.430;2023-10-09T07:57:11;17.90;99.90
44190;DHT22;29856;52.144;5.430;2023-10-09T07:59:37;17.90;99.90
44190;DHT22;29856;52.144;5.430;2023-10-09T08:02:02;18.00;99.90
44190;DHT22;29856;52.144;5.430;2023-10-09T08:04:28;18.00;99.90
44190;DHT22;29856;52.144;5.430;2023-10-09T08:06:54;18.10;99.90
44190;DHT22;29856;52.144;5.430;2023-10-09T08:09:19;18.10;99.90
44190;DHT22;29856;52.144;5.430;2023-10-09T08:11:46;18.20;99.90
44190;DHT22;29856;52.144;5.430;2023-10-09T08:14:12;18.20;99.90
44190;DHT22;29856;52.144;5.430;2023-10-09T08:16:38;18.20;99.90
44190;DHT22;29856;52.144;5.430;2023-10-09T08:19:04;18.40;99.90
44190;DHT22;29856;52.144;5.430;2023-10-09T08:21:30;18.40;99.90
44190;DHT22;29856;52.144;5.430;2023-10-09T08:23:55;18.30;99.90
44190;DHT22;29856;52.144;5.430;2023-10-09T08:26:20;18.40;99.90
44190;DHT22;29856;52.144;5.430;2023-10-09T08:28:46;18.50;99.90
44190;DHT22;29856;52.144;5.430;2023-10-09T08:31:13;18.50;99.90
44190;DHT22;29856;52.144;5.430;2023-10-09T08:33:38;18.50;99.90
44190;DHT22;29856;52.144;5.430;2023-10-09T08:36:04;18.60;99.90
44190;DHT22;29856;52.144;5.430;2023-10-09T08:38:30;18.60;99.90
44190;DHT22;29856;52.144;5.430;2023-10-09T08:40:55;18.60;99.90
44190;DHT22;29856;52.144;5.430;2023-10-09T08:43:21;18.60;99.90
44190;DHT22;29856;52.144;5.430;2023-10-09T08:45:55;18.60;99.90
44190;DHT22;29856;52.144;5.430;2023-10-09T08:48:21;18.70;99.90
44190;DHT22;29856;52.144;5.430;2023-10-09T08:50:50;18.60;99.90
44190;DHT22;29856;52.144;5.430;2023-10-09T08:53:16;18.70;99.90
44190;DHT22;29856;52.144;5.430;2023-10-09T08:55:43;18.70;99.90
44190;DHT22;29856;52.144;5.430;2023-10-09T08:58:09;18.70;99.90
44190;DHT22;29856;52.144;5.430;2023-10-09T09:00:35;18.80;99.90
44190;DHT22;29856;52.144;5.430;2023-10-09T09:03:00;18.80;99.90
44190;DHT22;29856;52.144;5.430;2023-10-09T09:05:25;18.90;99.90
44190;DHT22;29856;52.144;5.430;2023-10-09T09:07:51;18.90;99.90
44190;DHT22;29856;52.144;5.430;2023-10-09T09:10:17;18.90;99.90
44190;DHT22;29856;52.144;5.430;2023-10-09T09:12:43;19.00;99.90
44190;DHT22;29856;52.144;5.430;2023-10-09T09:15:15;19.00;99.90
44190;DHT22;29856;52.144;5.430;2023-10-09T09:17:41;19.10;99.90
44190;DHT22;29856;52.144;5.430;2023-10-09T09:20:19;19.10;99.90
44190;DHT22;29856;52.144;5.430;2023-10-09T09:22:55;19.20;99.90
44190;DHT22;29856;52.144;5.430;2023-10-09T09:25:20;19.30;99.90
44190;DHT22;29856;52.144;5.430;2023-10-09T09:27:47;19.30;99.90
44190;DHT22;29856;52.144;5.430;2023-10-09T09:30:23;19.40;99.90
44190;DHT22;29856;52.144;5.430;2023-10-09T09:32:48;19.50;99.90
44190;DHT22;29856;52.144;5.430;2023-10-09T09:35:14;19.50;99.90
44190;DHT22;29856;52.144;5.430;2023-10-09T09:37:39;19.60;99.90
44190;DHT22;29856;52.144;5.430;2023-10-09T09:40:05;19.60;99.90
44190;DHT22;29856;52.144;5.430;2023-10-09T09:42:32;19.60;99.90
44190;DHT22;29856;52.144;5.430;2023-10-09T09:45:00;19.70;99.90
44190;DHT22;29856;52.144;5.430;2023-10-09T09:47:26;19.70;99.90
44190;DHT22;29856;52.144;5.430;2023-10-09T09:49:55;19.80;99.90
44190;DHT22;29856;52.144;5.430;2023-10-09T09:52:21;19.90;99.90
44190;DHT22;29856;52.144;5.430;2023-10-09T09:54:46;19.80;99.90
44190;DHT22;29856;52.144;5.430;2023-10-09T09:57:13;19.90;99.90
44190;DHT22;29856;52.144;5.430;2023-10-09T09:59:41;19.80;99.90
44190;DHT22;29856;52.144;5.430;2023-10-09T10:02:09;19.90;99.90
44190;DHT22;29856;52.144;5.430;2023-10-09T10:04:38;20.00;99.90
44190;DHT22;29856;52.144;5.430;2023-10-09T10:07:05;20.00;99.90
44190;DHT22;29856;52.144;5.430;2023-10-09T10:09:39;20.20;99.90
44190;DHT22;29856;52.144;5.430;2023-10-09T10:12:05;20.20;99.90
44190;DHT22;29856;52.144;5.430;2023-10-09T10:14:51;20.30;99.90
44190;DHT22;29856;52.144;5.430;2023-10-09T10:17:17;20.40;99.90
44190;DHT22;29856;52.144;5.430;2023-10-09T10:22:23;20.10;99.90
44190;DHT22;29856;52.144;5.430;2023-10-09T10:24:49;20.30;99.90
44190;DHT22;29856;52.144;5.430;2023-10-09T10:27:15;20.40;99.90
44190;DHT22;29856;52.144;5.430;2023-10-09T10:29:40;20.40;99.90
44190;DHT22;29856;52.144;5.430;2023-10-09T10:32:06;20.50;99.90
44190;DHT22;29856;52.144;5.430;2023-10-09T10:34:52;20.50;99.90
44190;DHT22;29856;52.144;5.430;2023-10-09T10:37:18;20.50;99.90
44190;DHT22;29856;52.144;5.430;2023-10-09T10:39:50;20.60;99.90
44190;DHT22;29856;52.144;5.430;2023-10-09T10:42:16;20.50;99.90
44190;DHT22;29856;52.144;5.430;2023-10-09T10:44:41;20.50;99.90
44190;DHT22;29856;52.144;5.430;2023-10-09T10:47:12;20.50;99.90
44190;DHT22;29856;52.144;5.430;2023-10-09T10:49:43;20.60;99.90
44190;DHT22;29856;52.144;5.430;2023-10-09T10:52:20;20.70;99.90
44190;DHT22;29856;52.144;5.430;2023-10-09T10:54:45;20.50;99.90
44190;DHT22;29856;52.144;5.430;2023-10-09T10:57:21;20.60;99.90
44190;DHT22;29856;52.144;5.430;2023-10-09T10:59:46;20.60;99.90
44190;DHT22;29856;52.144;5.430;2023-10-09T11:02:12;20.70;99.90
44190;DHT22;29856;52.144;5.430;2023-10-09T11:04:38;20.60;99.90
44190;DHT22;29856;52.144;5.430;2023-10-09T11:07:04;20.60;99.90
44190;DHT22;29856;52.144;5.430;2023-10-09T11:09:43;20.90;99.90
44190;DHT22;29856;52.144;5.430;2023-10-09T11:12:08;21.00;99.90
44190;DHT22;29856;52.144;5.430;2023-10-09T11:14:33;21.00;99.90
44190;DHT22;29856;52.144;5.430;2023-10-09T11:16:59;21.00;99.90
44190;DHT22;29856;52.144;5.430;2023-10-09T11:19:25;21.00;99.90
44190;DHT22;29856;52.144;5.430;2023-10-09T11:21:51;21.10;99.90
44190;DHT22;29856;52.144;5.430;2023-10-09T11:24:17;21.20;99.90
44190;DHT22;29856;52.144;5.430;2023-10-09T11:26:43;21.30;99.90
44190;DHT22;29856;52.144;5.430;2023-10-09T11:29:13;21.40;99.90
44190;DHT22;29856;52.144;5.430;2023-10-09T11:31:40;21.30;99.90
44190;DHT22;29856;52.144;5.430;2023-10-09T11:34:18;21.40;99.90
44190;DHT22;29856;52.144;5.430;2023-10-09T11:36:43;21.50;99.90
44190;DHT22;29856;52.144;5.430;2023-10-09T11:39:24;21.40;99.90
44190;DHT22;29856;52.144;5.430;2023-10-09T11:41:49;21.40;99.90
44190;DHT22;29856;52.144;5.430;2023-10-09T11:44:16;21.40;99.90
44190;DHT22;29856;52.144;5.430;2023-10-09T11:46:57;21.30;99.90
44190;DHT22;29856;52.144;5.430;2023-10-09T11:49:22;21.30;99.90
44190;DHT22;29856;52.144;5.430;2023-10-09T11:51:48;21.40;99.90
44190;DHT22;29856;52.144;5.430;2023-10-09T11:54:31;21.60;99.90
44190;DHT22;29856;52.144;5.430;2023-10-09T11:56:56;21.70;99.90
44190;DHT22;29856;52.144;5.430;2023-10-09T11:59:22;21.50;99.90
44190;DHT22;29856;52.144;5.430;2023-10-09T12:01:47;21.10;99.90
44190;DHT22;29856;52.144;5.430;2023-10-09T12:04:13;21.00;99.90
44190;DHT22;29856;52.144;5.430;2023-10-09T12:06:38;21.20;99.90
44190;DHT22;29856;52.144;5.430;2023-10-09T12:09:04;21.10;99.90
44190;DHT22;29856;52.144;5.430;2023-10-09T12:11:29;21.20;99.90
44190;DHT22;29856;52.144;5.430;2023-10-09T12:13:55;21.20;99.90
44190;DHT22;29856;52.144;5.430;2023-10-09T12:16:20;21.50;99.90
44190;DHT22;29856;52.144;5.430;2023-10-09T12:18:46;21.50;99.90
44190;DHT22;29856;52.144;5.430;2023-10-09T12:21:11;21.50;99.90
44190;DHT22;29856;52.144;5.430;2023-10-09T12:23:37;21.50;99.90
44190;DHT22;29856;52.144;5.430;2023-10-09T12:26:03;21.50;99.90
44190;DHT22;29856;52.144;5.430;2023-10-09T12:28:29;21.50;99.90
44190;DHT22;29856;52.144;5.430;2023-10-09T12:30:54;21.50;99.90
44190;DHT22;29856;52.144;5.430;2023-10-09T12:33:21;21.50;99.90
44190;DHT22;29856;52.144;5.430;2023-10-09T12:35:46;21.40;99.90
44190;DHT22;29856;52.144;5.430;2023-10-09T12:38:12;21.50;99.90
44190;DHT22;29856;52.144;5.430;2023-10-09T12:40:39;21.50;99.90
44190;DHT22;29856;52.144;5.430;2023-10-09T12:43:04;21.40;99.90
44190;DHT22;29856;52.144;5.430;2023-10-09T12:45:33;21.40;99.90
44190;DHT22;29856;52.144;5.430;2023-10-09T12:47:59;21.40;99.90
44190;DHT22;29856;52.144;5.430;2023-10-09T12:50:25;21.50;99.90
44190;DHT22;29856;52.144;5.430;2023-10-09T12:52:51;21.40;99.90
44190;DHT22;29856;52.144;5.430;2023-10-09T12:55:16;21.40;99.90
44190;DHT22;29856;52.144;5.430;2023-10-09T12:57:42;21.50;99.90
44190;DHT22;29856;52.144;5.430;2023-10-09T13:00:07;21.50;99.90
44190;DHT22;29856;52.144;5.430;2023-10-09T13:02:33;21.50;99.90
44190;DHT22;29856;52.144;5.430;2023-10-09T13:04:58;21.50;99.90
44190;DHT22;29856;52.144;5.430;2023-10-09T13:07:24;21.30;99.90
44190;DHT22;29856;52.144;5.430;2023-10-09T13:09:49;21.30;99.90
44190;DHT22;29856;52.144;5.430;2023-10-09T13:12:15;21.20;99.90
44190;DHT22;29856;52.144;5.430;2023-10-09T13:14:40;21.10;99.90
44190;DHT22;29856;52.144;5.430;2023-10-09T13:17:06;21.10;99.90
44190;DHT22;29856;52.144;5.430;2023-10-09T13:19:31;21.20;99.90
44190;DHT22;29856;52.144;5.430;2023-10-09T13:21:57;21.20;99.90
44190;DHT22;29856;52.144;5.430;2023-10-09T13:24:22;21.20;99.90
44190;DHT22;29856;52.144;5.430;2023-10-09T13:26:48;21.30;99.90
44190;DHT22;29856;52.144;5.430;2023-10-09T13:29:13;21.20;99.90
44190;DHT22;29856;52.144;5.430;2023-10-09T13:31:39;21.20;99.90
44190;DHT22;29856;52.144;5.430;2023-10-09T13:34:05;21.10;99.90
44190;DHT22;29856;52.144;5.430;2023-10-09T13:36:31;21.00;99.90
44190;DHT22;29856;52.144;5.430;2023-10-09T13:38:58;20.90;99.90
44190;DHT22;29856;52.144;5.430;2023-10-09T13:41:23;20.70;99.90
44190;DHT22;29856;52.144;5.430;2023-10-09T13:43:49;20.80;99.90
44190;DHT22;29856;52.144;5.430;2023-10-09T13:46:14;20.80;99.90
44190;DHT22;29856;52.144;5.430;2023-10-09T13:48:40;20.80;99.90
44190;DHT22;29856;52.144;5.430;2023-10-09T13:51:06;20.80;99.90
44190;DHT22;29856;52.144;5.430;2023-10-09T13:53:31;20.80;99.90
44190;DHT22;29856;52.144;5.430;2023-10-09T13:55:57;20.70;99.90
44190;DHT22;29856;52.144;5.430;2023-10-09T13:58:22;20.90;99.90
44190;DHT22;29856;52.144;5.430;2023-10-09T14:00:48;21.00;99.90
44190;DHT22;29856;52.144;5.430;2023-10-09T14:03:13;20.90;99.90
44190;DHT22;29856;52.144;5.430;2023-10-09T14:05:40;20.90;99.90
44190;DHT22;29856;52.144;5.430;2023-10-09T14:08:05;20.90;99.90
44190;DHT22;29856;52.144;5.430;2023-10-09T14:10:31;20.90;99.90
44190;DHT22;29856;52.144;5.430;2023-10-09T14:12:56;21.00;99.90
44190;DHT22;29856;52.144;5.430;2023-10-09T14:15:22;20.80;99.90
44190;DHT22;29856;52.144;5.430;2023-10-09T14:17:48;20.80;99.90
44190;DHT22;29856;52.144;5.430;2023-10-09T14:20:13;20.80;99.90
44190;DHT22;29856;52.144;5.430;2023-10-09T14:22:39;20.80;99.90
44190;DHT22;29856;52.144;5.430;2023-10-09T14:25:04;20.90;99.90
44190;DHT22;29856;52.144;5.430;2023-10-09T14:27:30;20.70;99.90
44190;DHT22;29856;52.144;5.430;2023-10-09T14:29:56;20.70;99.90
44190;DHT22;29856;52.144;5.430;2023-10-09T14:32:22;20.80;99.90
44190;DHT22;29856;52.144;5.430;2023-10-09T14:34:48;20.80;99.90
44190;DHT22;29856;52.144;5.430;2023-10-09T14:37:13;20.80;99.90
44190;DHT22;29856;52.144;5.430;2023-10-09T14:39:39;20.80;99.90
44190;DHT22;29856;52.144;5.430;2023-10-09T14:42:05;20.90;99.90
44190;DHT22;29856;52.144;5.430;2023-10-09T14:44:30;20.70;99.90
44190;DHT22;29856;52.144;5.430;2023-10-09T14:46:56;20.80;99.90
44190;DHT22;29856;52.144;5.430;2023-10-09T14:49:21;20.90;99.90
44190;DHT22;29856;52.144;5.430;2023-10-09T14:51:47;20.80;99.90
44190;DHT22;29856;52.144;5.430;2023-10-09T14:54:13;20.90;99.90
44190;DHT22;29856;52.144;5.430;2023-10-09T14:56:38;20.80;99.90
44190;DHT22;29856;52.144;5.430;2023-10-09T14:59:04;20.90;99.90
44190;DHT22;29856;52.144;5.430;2023-10-09T15:01:29;20.80;99.90
44190;DHT22;29856;52.144;5.430;2023-10-09T15:03:59;20.80;99.90
44190;DHT22;29856;52.144;5.430;2023-10-09T15:06:24;20.80;99.90
44190;DHT22;29856;52.144;5.430;2023-10-09T15:08:50;20.90;99.90
44190;DHT22;29856;52.144;5.430;2023-10-09T15:11:16;20.70;99.90
44190;DHT22;29856;52.144;5.430;2023-10-09T15:13:41;20.70;99.90
44190;DHT22;29856;52.144;5.430;2023-10-09T15:16:07;20.80;99.90
44190;DHT22;29856;52.144;5.430;2023-10-09T15:18:32;20.70;99.90
44190;DHT22;29856;52.144;5.430;2023-10-09T15:20:58;20.60;99.90
44190;DHT22;29856;52.144;5.430;2023-10-09T15:23:23;20.50;99.90
44190;DHT22;29856;52.144;5.430;2023-10-09T15:25:49;20.50;99.90